メインページ
METAR-TAF:

METAR-TAF

空港 :

リガ国際空港

リガ, ラトビア

緯度: 56-55N, 経度: 023-58E, 海抜: 10m

現時点の気象観測

当レポートは31分前の03:50(UTC)に作成
南/南西の風 4kt、から南西の間で変化する
気温 1°C
湿度 93%
気圧 1007 hPa
視程10km以上
高度600ftの雲は散在している

METAR: EVRA 250350Z 20004KT 170V230 9999 SCT006 01/M00 Q1007 R18/190095 NOSIG

時間: 06:21 (04:21 UTC)

予報

当レポートは2時間21分前の02:00(UTC)に作成
予報は25日の 03時(UTC)から 26日の 03時(UTC)まで有効
南西の風 7kt
視程10km以上
高度500ftの千切れ雲あり
高度1000ftの曇り
25日の 03時(UTC)から 25日の 06時(UTC)まで一時的に
視程: 1500m
高度200ftの千切れ雲あり
高度1000ftの曇り
雨, 雪, 靄
確率 40% :
25日の 03時(UTC)から 25日の 06時(UTC)まで一時的に
視程: 0700m
高度100ftの
25日の 06時(UTC)から 25日の 08時(UTC)まで徐々に
高度2000ftの千切れ雲あり
25日の 10時(UTC)から 25日の 12時(UTC)まで徐々に
北西の風 10kt
25日の 10時(UTC)から 25日の 15時(UTC)まで一時的に
視程: 4000m
高度1500ftの千切れ雲あり, 積乱雲.
にわか雨
確率 40% :
25日の 10時(UTC)から 25日の 15時(UTC)まで一時的に
激しい雷雨

TAF: EVRA 250200Z 2503/2603 22007KT 9999 BKN005 OVC010 TEMPO 2503/2506 1500 RASN BR BKN002 OVC010 PROB40 TEMPO 2503/2506 0700 FG VV001 BECMG 2506/2508 BKN020 BECMG 2510/2512 32010KT TEMPO 2510/2515 4000 SHRA BKN015CB PROB40 TEMPO 2510/2515 TS

4,000以上の空港の気象観測と天気予報(METAR報とTAF報)

利用可能な観測所は地図上に黄色い丸と赤い丸で示す。

丸の上にカーソルを重ねると観測所名を参照できる。

次にクリックすると気象観測と天気予報を参照できる。

マップの切り替え:黒色「×」印の緑ボタンをクリックして拡大、「-」印の緑ボタンをクリックして縮小、緑色の三角印をクリックして隣りの地図に切り替え


METAR-TAF: